Time;durP1;ratioP1;P1;durP2;ratioP2;P2;SDS_P1;SDS_P2;PMS_P1;PMS_P2;Temp;Humidity;BMP_temperature;BMP_pressure;BME280_temperature;BME280_humidity;BME280_pressure;Samples;Min_cycle;Max_cycle;Signal;HPM_P1;HPM_P2
2022/04/18 00:02:18;;;;;;;;;;;;;;;10.20;45.75;102031.81;5053395;28;20286;-34
2022/04/18 00:04:43;;;;;;;;;;;;;;;10.18;45.72;102033.91;5053507;28;19966;-34
2022/04/18 00:07:10;;;;;;;;;;;;;;;10.15;45.39;102027.06;5053788;28;20373;-34
2022/04/18 00:09:35;;;;;;;;;;;;;;;10.11;46.36;102028.47;5053441;28;19966;-34
2022/04/18 00:12:00;;;;;;;;;;;;;;;10.06;46.29;102023.66;5054251;28;19916;-34
2022/04/18 00:14:26;;;;;;;;;;;;;;;10.04;46.54;102023.00;5053234;28;19916;-34
2022/04/18 00:16:51;;;;;;;;;;;;;;;10.01;45.91;102023.44;5053955;28;19920;-34
2022/04/18 00:19:16;;;;;;;;;;;;;;;9.97;46.38;102019.44;5053301;28;19952;-34
2022/04/18 00:21:41;;;;;;;;;;;;;;;9.95;47.39;102020.66;5053077;28;19913;-34
2022/04/18 00:24:08;;;;;;;;;;;;;;;9.94;46.42;102017.13;5052966;28;19919;-34
2022/04/18 00:26:34;;;;;;;;;;;;;;;9.93;46.54;102018.16;5053403;28;19939;-34
2022/04/18 00:28:59;;;;;;;;;;;;;;;9.90;46.25;102010.44;5054034;28;19917;-34
2022/04/18 00:31:24;;;;;;;;;;;;;;;9.90;46.41;102017.72;5056007;28;19913;-34
2022/04/18 00:33:50;;;;;;;;;;;;;;;9.89;46.34;102019.59;5057178;28;19966;-34
2022/04/18 00:36:15;;;;;;;;;;;;;;;9.88;46.37;102020.63;5057594;28;19967;-34
2022/04/18 00:38:44;;;;;;;;;;;;;;;9.85;46.43;102020.19;5057198;28;20356;-34
2022/04/18 00:41:09;;;;;;;;;;;;;;;9.80;46.64;102021.59;5055740;28;19958;-34
2022/04/18 00:43:42;;;;;;;;;;;;;;;9.75;46.82;102015.97;5057962;28;19948;-34
2022/04/18 00:46:07;;;;;;;;;;;;;;;9.72;46.52;102024.47;5057661;28;19917;-34
2022/04/18 00:48:33;;;;;;;;;;;;;;;9.70;46.63;102018.41;5056915;28;19919;-35
2022/04/18 00:50:58;;;;;;;;;;;;;;;9.67;46.96;102018.00;5057902;28;19912;-34
2022/04/18 00:53:23;;;;;;;;;;;;;;;9.65;46.54;102023.56;5057070;28;19916;-34
2022/04/18 00:55:49;;;;;;;;;;;;;;;9.62;46.45;102024.00;5057464;28;19955;-34
2022/04/18 00:58:14;;;;;;;;;;;;;;;9.57;47.07;102021.03;5057389;28;20300;-34
2022/04/18 01:00:39;;;;;;;;;;;;;;;9.52;47.75;102021.63;5039179;28;19934;-34
2022/04/18 01:03:05;;;;;;;;;;;;;;;9.47;46.99;102015.97;5057099;28;19920;-34
2022/04/18 01:05:30;;;;;;;;;;;;;;;9.42;47.35;102014.88;5057296;28;19916;-34
2022/04/18 01:07:55;;;;;;;;;;;;;;;9.39;47.71;102012.56;5056762;28;19959;-34
2022/04/18 01:10:21;;;;;;;;;;;;;;;9.37;47.39;102012.78;5057620;28;19913;-34
2022/04/18 01:12:46;;;;;;;;;;;;;;;9.34;47.64;102010.44;5056687;28;20266;-34
2022/04/18 01:15:11;;;;;;;;;;;;;;;9.31;47.44;102010.81;5057315;28;19967;-34
2022/04/18 01:17:37;;;;;;;;;;;;;;;9.25;47.48;102000.81;5056591;28;19960;-34
2022/04/18 01:20:02;;;;;;;;;;;;;;;9.20;47.48;102009.50;5057043;28;19936;-34
2022/04/18 01:22:27;;;;;;;;;;;;;;;9.18;48.13;102008.03;5057214;28;19917;-34
2022/04/18 01:30:24;;;;;;;;;;;;;;;9.05;48.04;101997.09;5056910;28;19979;-34
2022/04/18 01:32:50;;;;;;;;;;;;;;;8.99;48.57;101999.53;5056918;28;19956;-34
2022/04/18 01:35:15;;;;;;;;;;;;;;;8.95;47.92;101995.56;5056220;28;19964;-34
2022/04/18 01:37:40;;;;;;;;;;;;;;;8.95;47.90;102005.50;5056207;28;20007;-34
2022/04/18 01:40:06;;;;;;;;;;;;;;;8.88;47.99;102005.47;5057014;28;19917;-34
2022/04/18 01:42:31;;;;;;;;;;;;;;;8.84;48.24;102006.88;5054797;28;20387;-34
2022/04/18 01:44:57;;;;;;;;;;;;;;;8.78;48.60;102004.91;5055529;28;19936;-34
2022/04/18 01:47:22;;;;;;;;;;;;;;;8.73;48.42;102007.34;5055764;28;19917;-34
2022/04/18 01:49:47;;;;;;;;;;;;;;;8.71;48.80;102004.84;5056891;28;19913;-34
2022/04/18 01:52:12;;;;;;;;;;;;;;;8.67;48.68;102000.03;5056301;28;19920;-34
2022/04/18 01:54:37;;;;;;;;;;;;;;;8.61;48.31;102003.47;5056510;28;19912;-34
2022/04/18 01:57:04;;;;;;;;;;;;;;;8.57;48.48;102002.19;5056201;28;19916;-34
2022/04/18 01:59:29;;;;;;;;;;;;;;;8.51;49.36;102003.78;5055860;28;19913;-34
2022/04/18 02:01:54;;;;;;;;;;;;;;;8.45;48.70;101994.59;5055836;28;19919;-34
2022/04/18 02:04:19;;;;;;;;;;;;;;;8.37;48.93;101994.69;5055750;28;19912;-34
2022/04/18 02:06:44;;;;;;;;;;;;;;;8.30;48.86;101996.44;5055670;28;19912;-34
2022/04/18 02:09:10;;;;;;;;;;;;;;;8.20;49.05;101990.53;5055743;28;19913;-34
2022/04/18 02:11:35;;;;;;;;;;;;;;;8.14;49.34;101989.38;5055985;28;20120;-34
2022/04/18 02:14:00;;;;;;;;;;;;;;;8.09;49.92;101999.88;5055499;28;19916;-34
2022/04/18 02:16:28;;;;;;;;;;;;;;;8.06;49.19;101991.38;5055878;28;19971;-34
2022/04/18 02:18:53;;;;;;;;;;;;;;;8.00;49.89;101996.47;5055159;28;19912;-34
2022/04/18 02:21:19;;;;;;;;;;;;;;;7.94;49.83;101989.13;5055786;28;19994;-34
2022/04/18 02:23:44;;;;;;;;;;;;;;;7.94;50.41;101985.59;5055357;28;19912;-34
2022/04/18 02:26:10;;;;;;;;;;;;;;;7.95;50.29;101981.88;5055065;28;19913;-34
2022/04/18 02:28:35;;;;;;;;;;;;;;;7.95;49.99;101981.88;5055370;28;19919;-34
2022/04/18 02:31:01;;;;;;;;;;;;;;;7.93;50.17;101984.75;5056106;28;20003;-34
2022/04/18 02:33:26;;;;;;;;;;;;;;;7.89;50.26;101988.00;5055995;28;19939;-34
2022/04/18 02:35:51;;;;;;;;;;;;;;;7.87;50.20;101990.06;5055494;28;20007;-34
2022/04/18 02:38:17;;;;;;;;;;;;;;;7.84;49.91;101977.78;5054805;28;19924;-34
2022/04/18 02:40:42;;;;;;;;;;;;;;;7.85;50.51;101982.13;5054867;28;19995;-34
2022/04/18 02:43:07;;;;;;;;;;;;;;;7.84;51.25;101977.78;5055052;28;19913;-34
2022/04/18 02:45:33;;;;;;;;;;;;;;;7.86;50.40;101973.06;5055497;28;19912;-34
2022/04/18 02:47:59;;;;;;;;;;;;;;;7.87;50.93;101969.34;5055462;28;19964;-34
2022/04/18 02:50:24;;;;;;;;;;;;;;;7.84;50.70;101968.88;5055279;28;19912;-34
2022/04/18 02:52:49;;;;;;;;;;;;;;;7.80;50.38;101965.69;5054707;28;19913;-34
2022/04/18 02:55:15;;;;;;;;;;;;;;;7.79;50.85;101968.59;5054404;28;20011;-34
2022/04/18 02:57:40;;;;;;;;;;;;;;;7.75;50.79;101960.03;5055263;28;19912;-34
2022/04/18 03:00:06;;;;;;;;;;;;;;;7.71;50.41;101958.72;5055098;28;19920;-34
2022/04/18 03:02:31;;;;;;;;;;;;;;;7.67;50.98;101962.84;5054646;28;19913;-34
2022/04/18 03:04:57;;;;;;;;;;;;;;;7.64;51.07;101957.81;5055128;28;19913;-34
2022/04/18 03:07:22;;;;;;;;;;;;;;;7.59;50.95;101950.28;5054270;28;19913;-34
2022/04/18 03:09:47;;;;;;;;;;;;;;;7.55;51.29;101948.16;5055373;28;20360;-34
2022/04/18 03:12:13;;;;;;;;;;;;;;;7.52;51.44;101948.53;5054261;28;20261;-34
2022/04/18 03:14:38;;;;;;;;;;;;;;;7.49;51.70;101949.72;5054028;28;19919;-34
2022/04/18 03:17:03;;;;;;;;;;;;;;;7.44;51.90;101946.75;5054736;28;19913;-34
2022/04/18 03:19:29;;;;;;;;;;;;;;;7.35;51.39;101945.97;5052669;28;20392;-34
2022/04/18 03:21:54;;;;;;;;;;;;;;;7.31;51.74;101938.47;5054935;28;20361;-34
2022/04/18 03:24:19;;;;;;;;;;;;;;;7.26;51.83;101939.00;5054201;28;19935;-34
2022/04/18 03:26:45;;;;;;;;;;;;;;;7.25;51.75;101941.88;5054811;28;19920;-34
2022/04/18 03:29:10;;;;;;;;;;;;;;;7.19;52.21;101941.59;5054184;28;19913;-34
2022/04/18 03:31:36;;;;;;;;;;;;;;;7.17;52.16;101945.47;5054192;28;20013;-34
2022/04/18 03:34:01;;;;;;;;;;;;;;;7.10;52.31;101944.53;5054070;28;19938;-34
2022/04/18 03:41:54;;;;;;;;;;;;;;;6.89;52.23;101948.75;5054566;28;19920;-34
2022/04/18 03:44:19;;;;;;;;;;;;;;;6.87;52.59;101949.91;5053922;28;20292;-34
2022/04/18 03:46:45;;;;;;;;;;;;;;;6.80;52.48;101948.97;5053893;28;19919;-34
2022/04/18 03:49:10;;;;;;;;;;;;;;;6.70;52.49;101951.91;5054338;28;19913;-34
2022/04/18 03:51:36;;;;;;;;;;;;;;;6.65;52.56;101949.75;5054094;28;20258;-34
2022/04/18 03:54:01;;;;;;;;;;;;;;;6.62;52.49;101951.94;5053708;28;19920;-34
2022/04/18 03:56:26;;;;;;;;;;;;;;;6.55;52.54;101946.47;5054833;28;19936;-34
2022/04/18 03:58:51;;;;;;;;;;;;;;;6.53;52.87;101948.47;5054041;28;20344;-34
2022/04/18 04:01:17;;;;;;;;;;;;;;;6.53;52.89;101948.47;5054283;28;19920;-34
2022/04/18 04:03:42;;;;;;;;;;;;;;;6.55;52.60;101942.94;5053776;28;19913;-34
2022/04/18 04:06:07;;;;;;;;;;;;;;;6.58;53.58;101940.72;5053228;28;19967;-34
2022/04/18 04:08:33;;;;;;;;;;;;;;;6.56;53.43;101939.22;5053569;28;19920;-34
2022/04/18 04:10:58;;;;;;;;;;;;;;;6.51;53.49;101933.56;5053836;28;19936;-34
2022/04/18 04:13:23;;;;;;;;;;;;;;;6.46;53.02;101934.09;5053589;28;19912;-34
2022/04/18 04:15:48;;;;;;;;;;;;;;;6.46;53.10;101942.16;5053758;28;19919;-34
2022/04/18 04:18:14;;;;;;;;;;;;;;;6.45;53.35;101938.63;5053478;28;19935;-34
2022/04/18 04:20:39;;;;;;;;;;;;;;;6.44;53.55;101934.25;5054025;28;20327;-34
2022/04/18 04:23:04;;;;;;;;;;;;;;;6.40;53.91;101938.31;5053684;28;19978;-34
2022/04/18 04:25:29;;;;;;;;;;;;;;;6.35;53.45;101932.63;5053506;28;20012;-34
2022/04/18 04:27:55;;;;;;;;;;;;;;;6.31;53.76;101935.84;5053914;28;19975;-34
2022/04/18 04:30:20;;;;;;;;;;;;;;;6.29;54.02;101938.69;5053524;28;19913;-34
2022/04/18 04:32:45;;;;;;;;;;;;;;;6.25;53.97;101934.72;5053334;28;19977;-34
2022/04/18 04:35:10;;;;;;;;;;;;;;;6.22;54.49;101937.75;5053346;28;19912;-34
2022/04/18 04:37:36;;;;;;;;;;;;;;;6.18;53.83;101934.56;5053334;28;19924;-34
2022/04/18 04:40:02;;;;;;;;;;;;;;;6.14;54.15;101935.09;5053894;28;20356;-33
2022/04/18 04:42:27;;;;;;;;;;;;;;;6.13;54.73;101946.84;5053072;28;19912;-34
2022/04/18 04:44:52;;;;;;;;;;;;;;;6.11;54.20;101943.50;5053563;28;19913;-34
2022/04/18 04:47:18;;;;;;;;;;;;;;;6.10;54.44;101944.50;5053124;28;20373;-33
2022/04/18 04:49:43;;;;;;;;;;;;;;;6.09;55.01;101953.56;5053035;28;19913;-33
2022/04/18 04:52:08;;;;;;;;;;;;;;;6.07;54.98;101947.53;5053730;28;19913;-34
2022/04/18 04:54:34;;;;;;;;;;;;;;;6.04;54.47;101953.25;5053300;28;19916;-34
2022/04/18 04:56:59;;;;;;;;;;;;;;;6.02;54.61;101950.75;5053520;28;19955;-34
2022/04/18 04:59:25;;;;;;;;;;;;;;;6.04;54.53;101950.56;5052923;28;20340;-34
2022/04/18 05:01:50;;;;;;;;;;;;;;;6.04;54.69;101950.56;5053727;28;20395;-34
2022/04/18 05:04:15;;;;;;;;;;;;;;;6.04;54.77;101955.94;5052898;28;20011;-34
2022/04/18 05:06:40;;;;;;;;;;;;;;;6.05;54.94;101944.19;5053529;28;19913;-34
2022/04/18 05:09:06;;;;;;;;;;;;;;;6.09;55.15;101951.72;5053126;28;20015;-34
2022/04/18 05:11:32;;;;;;;;;;;;;;;6.13;55.14;101952.22;5053290;28;19917;-34
2022/04/18 05:13:57;;;;;;;;;;;;;;;6.18;54.83;101956.03;5052922;28;19936;-34
2022/04/18 05:16:23;;;;;;;;;;;;;;;6.24;54.78;101954.50;5054474;28;20234;-34
2022/04/18 05:18:49;;;;;;;;;;;;;;;6.31;54.87;101951.97;5056934;28;19919;-34
2022/04/18 05:21:14;;;;;;;;;;;;;;;6.41;55.18;101956.09;5056321;28;19912;-34
2022/04/18 05:23:39;;;;;;;;;;;;;;;6.49;55.11;101951.69;5056538;28;19920;-34
2022/04/18 05:26:04;;;;;;;;;;;;;;;6.58;54.78;101959.53;5057050;28;20275;-34
2022/04/18 05:28:29;;;;;;;;;;;;;;;6.71;55.16;101961.63;5056669;28;19912;-34
2022/04/18 05:30:55;;;;;;;;;;;;;;;6.82;54.91;101947.78;5056684;28;19920;-34
2022/04/18 05:33:23;;;;;;;;;;;;;;;6.94;55.71;101949.03;5057086;28;19912;-34
2022/04/18 05:35:48;;;;;;;;;;;;;;;7.07;55.32;101959.16;5056494;28;19917;-34
2022/04/18 05:38:14;;;;;;;;;;;;;;;7.14;55.54;101960.13;5056542;28;19913;-34
2022/04/18 05:40:39;;;;;;;;;;;;;;;7.28;54.57;101961.19;5056656;28;19966;-34
2022/04/18 05:43:05;;;;;;;;;;;;;;;7.39;56.08;101966.13;5056162;28;19913;-34
2022/04/18 05:45:30;;;;;;;;;;;;;;;7.47;55.89;101962.53;5056632;28;19951;-34
2022/04/18 05:47:55;;;;;;;;;;;;;;;7.57;54.93;101955.03;5056042;28;19917;-34
2022/04/18 05:50:20;;;;;;;;;;;;;;;7.65;55.77;101957.63;5056024;28;19920;-34
2022/04/18 05:52:47;;;;;;;;;;;;;;;7.71;55.74;101953.34;5055984;28;19916;-34
2022/04/18 05:55:12;;;;;;;;;;;;;;;7.79;55.95;101963.22;5055891;28;19920;-34
2022/04/18 05:57:37;;;;;;;;;;;;;;;7.90;54.66;101960.03;5056067;28;20296;-34
2022/04/18 06:00:03;;;;;;;;;;;;;;;7.98;55.45;101952.69;5056024;28;19917;-34
2022/04/18 06:02:29;;;;;;;;;;;;;;;8.06;55.05;101957.16;5055354;28;19913;-34
2022/04/18 06:04:54;;;;;;;;;;;;;;;8.11;54.19;101960.13;5056313;28;19919;-35
2022/04/18 06:07:19;;;;;;;;;;;;;;;8.22;54.31;101961.50;5056346;28;19920;-34
2022/04/18 06:09:45;;;;;;;;;;;;;;;8.33;55.18;101960.19;5055426;28;20369;-34
2022/04/18 06:12:10;;;;;;;;;;;;;;;8.43;54.67;101961.59;5056185;28;19919;-34
2022/04/18 06:14:35;;;;;;;;;;;;;;;8.56;54.30;101952.00;5055292;28;19970;-34
2022/04/18 06:17:00;;;;;;;;;;;;;;;8.69;53.99;101960.22;5056492;28;19962;-34
2022/04/18 06:19:25;;;;;;;;;;;;;;;8.78;54.55;101961.75;5055224;28;19943;-34
2022/04/18 06:21:51;;;;;;;;;;;;;;;8.85;55.13;101962.66;5055293;28;20049;-34
2022/04/18 06:24:18;;;;;;;;;;;;;;;8.94;54.02;101961.53;5055416;28;20015;-34
2022/04/18 06:26:43;;;;;;;;;;;;;;;8.98;54.02;101967.38;5055918;28;19979;-34
2022/04/18 06:29:09;;;;;;;;;;;;;;;9.03;54.55;101970.31;5054575;28;19920;-34
2022/04/18 06:31:34;;;;;;;;;;;;;;;9.03;53.75;101971.16;5055759;28;19996;-35
2022/04/18 06:33:59;;;;;;;;;;;;;;;9.09;53.73;101966.00;5054762;28;19913;-34
2022/04/18 06:36:25;;;;;;;;;;;;;;;9.21;53.55;101967.97;5055947;28;19913;-34
2022/04/18 06:38:50;;;;;;;;;;;;;;;9.31;53.40;101969.50;5055085;28;20376;-34
2022/04/18 06:41:15;;;;;;;;;;;;;;;9.41;53.67;101965.44;5055329;28;19916;-34
2022/04/18 06:43:40;;;;;;;;;;;;;;;9.52;53.47;101961.38;5053364;28;19913;-34
2022/04/18 06:46:06;;;;;;;;;;;;;;;9.62;53.43;101963.75;5055094;28;19924;-33
2022/04/18 06:48:31;;;;;;;;;;;;;;;9.72;53.01;101958.81;5055008;28;20371;-34
2022/04/18 06:50:56;;;;;;;;;;;;;;;9.85;52.47;101958.88;5055620;28;19924;-33
2022/04/18 06:53:21;;;;;;;;;;;;;;;9.92;52.08;101957.06;5054979;28;20380;-33
2022/04/18 06:58:31;;;;;;;;;;;;;;;10.10;50.90;101950.28;5055254;28;19919;-34
2022/04/18 07:00:56;;;;;;;;;;;;;;;10.22;51.97;101959.50;5055018;28;19917;-34
2022/04/18 07:03:21;;;;;;;;;;;;;;;10.36;52.27;101953.13;5055351;28;19920;-34
2022/04/18 07:05:47;;;;;;;;;;;;;;;10.48;50.97;101954.19;5054561;28;19913;-34
2022/04/18 07:08:12;;;;;;;;;;;;;;;10.58;51.41;101959.22;5054119;28;20375;-34
2022/04/18 07:10:38;;;;;;;;;;;;;;;10.64;51.11;101946.75;5054978;28;20004;-34
2022/04/18 07:13:03;;;;;;;;;;;;;;;10.70;50.18;101952.19;5054987;28;19995;-34
2022/04/18 07:15:28;;;;;;;;;;;;;;;10.79;51.29;101950.13;5054559;28;20009;-34
2022/04/18 07:17:53;;;;;;;;;;;;;;;10.88;50.97;101950.75;5054286;28;20357;-34
2022/04/18 07:20:18;;;;;;;;;;;;;;;10.95;50.74;101949.72;5054516;28;20349;-34
2022/04/18 07:22:44;;;;;;;;;;;;;;;11.03;50.07;101952.25;5054166;28;20007;-34
2022/04/18 07:25:09;;;;;;;;;;;;;;;11.12;50.41;101952.84;5054900;28;19919;-34
2022/04/18 07:27:35;;;;;;;;;;;;;;;11.22;50.64;101945.16;5054339;28;19920;-34
2022/04/18 07:30:00;;;;;;;;;;;;;;;11.35;50.05;101947.03;5053912;28;19966;-34
2022/04/18 07:32:25;;;;;;;;;;;;;;;11.48;49.85;101944.31;5054063;28;20361;-34
2022/04/18 07:34:50;;;;;;;;;;;;;;;11.61;49.88;101938.03;5054600;28;20328;-34
2022/04/18 07:37:16;;;;;;;;;;;;;;;11.72;49.08;101940.13;5054397;28;19923;-34
2022/04/18 07:39:41;;;;;;;;;;;;;;;11.84;47.43;101934.91;5051419;28;19919;-33
2022/04/18 07:42:06;;;;;;;;;;;;;;;11.97;48.15;101937.56;5053563;28;19916;-34
2022/04/18 07:44:31;;;;;;;;;;;;;;;12.08;47.28;101930.66;5053744;28;19951;-34
2022/04/18 07:46:58;;;;;;;;;;;;;;;12.16;46.61;101933.13;5053691;28;19959;-34
2022/04/18 07:49:23;;;;;;;;;;;;;;;12.29;47.81;101934.94;5053200;28;19913;-33
2022/04/18 07:51:48;;;;;;;;;;;;;;;12.35;47.09;101929.50;5053826;28;19920;-34
2022/04/18 07:54:16;;;;;;;;;;;;;;;12.49;46.45;101929.41;5054020;28;19963;-34
2022/04/18 07:56:43;;;;;;;;;;;;;;;12.62;46.65;101923.91;5053621;28;20004;-34
2022/04/18 07:59:09;;;;;;;;;;;;;;;12.75;46.91;101921.13;5053092;28;20395;-34
2022/04/18 08:01:34;;;;;;;;;;;;;;;12.86;45.82;101920.41;5053489;28;19916;-34
2022/04/18 08:04:03;;;;;;;;;;;;;;;12.98;45.99;101923.25;5053127;28;20034;-34
2022/04/18 08:06:29;;;;;;;;;;;;;;;13.07;45.75;101919.19;5053959;28;19913;-34
2022/04/18 08:08:54;;;;;;;;;;;;;;;13.21;44.37;101927.25;5053334;28;19935;-34
2022/04/18 08:11:20;;;;;;;;;;;;;;;13.30;44.92;101921.34;5051558;28;19963;-34
2022/04/18 08:13:47;;;;;;;;;;;;;;;13.41;44.84;101922.47;5053776;28;19913;-34
2022/04/18 08:16:12;;;;;;;;;;;;;;;13.52;44.20;101915.50;5054012;28;19989;-34
2022/04/18 08:18:39;;;;;;;;;;;;;;;13.65;44.42;101924.31;5051811;28;20372;-34
2022/04/18 08:21:05;;;;;;;;;;;;;;;13.76;44.69;101922.78;5052257;28;19917;-34
2022/04/18 08:23:31;;;;;;;;;;;;;;;13.93;43.71;101919.44;5052708;28;19923;-34
2022/04/18 08:25:57;;;;;;;;;;;;;;;14.01;42.91;101932.75;5052805;28;19985;-34
2022/04/18 08:28:22;;;;;;;;;;;;;;;14.06;42.21;101914.69;5052917;28;19917;-34
2022/04/18 08:30:47;;;;;;;;;;;;;;;14.13;41.30;101920.84;5051249;28;20031;-34
2022/04/18 08:33:12;;;;;;;;;;;;;;;14.22;42.49;101915.13;5052639;28;19979;-34
2022/04/18 08:35:38;;;;;;;;;;;;;;;14.30;40.32;101925.66;5053452;28;19912;-34
2022/04/18 08:38:03;;;;;;;;;;;;;;;14.43;39.85;101914.59;5053044;28;19917;-34
2022/04/18 08:40:28;;;;;;;;;;;;;;;14.52;38.99;101915.97;5052639;28;19923;-34
2022/04/18 08:42:57;;;;;;;;;;;;;;;14.67;38.50;101916.38;5052749;28;19917;-34
2022/04/18 08:45:24;;;;;;;;;;;;;;;14.82;36.89;101915.13;5052814;28;19944;-34
2022/04/18 08:53:19;;;;;;;;;;;;;;;15.30;39.13;101919.56;5055642;28;20073;-34
2022/04/18 08:55:44;;;;;;;;;;;;;;;15.40;37.70;101915.19;5057013;28;20015;-34
2022/04/18 08:58:11;;;;;;;;;;;;;;;15.45;36.78;101914.47;5057426;28;20372;-34
2022/04/18 09:00:36;;;;;;;;;;;;;;;15.51;37.20;101915.41;5056863;28;19921;-34
2022/04/18 09:03:02;;;;;;;;;;;;;;;15.50;36.86;101917.31;5056632;28;19999;-34
2022/04/18 09:05:34;;;;;;;;;;;;;;;15.53;38.24;101914.13;5056816;28;19974;-34
2022/04/18 09:08:00;;;;;;;;;;;;;;;15.57;36.36;101909.88;5056955;28;19913;-34
2022/04/18 09:10:26;;;;;;;;;;;;;;;15.65;37.85;101916.88;5057400;28;20272;-34
2022/04/18 09:12:51;;;;;;;;;;;;;;;15.80;37.74;101905.47;5056728;28;20008;-35
2022/04/18 09:15:29;;;;;;;;;;;;;;;15.93;35.38;101897.84;5056606;28;19978;-34
2022/04/18 09:18:05;;;;;;;;;;;;;;;16.13;37.17;101902.88;5056974;28;19912;-34
2022/04/18 09:20:39;;;;;;;;;;;;;;;16.25;37.68;101904.75;5056007;28;19912;-34
2022/04/18 09:23:04;;;;;;;;;;;;;;;16.30;36.76;101907.56;5057047;28;20195;-34
2022/04/18 09:25:36;;;;;;;;;;;;;;;16.35;37.59;101900.31;5056581;28;19916;-34
2022/04/18 09:28:01;;;;;;;;;;;;;;;16.45;36.87;101902.41;5056778;28;20399;-34
2022/04/18 09:30:31;;;;;;;;;;;;;;;16.55;37.74;101907.25;5056652;28;19913;-34
2022/04/18 09:32:57;;;;;;;;;;;;;;;16.66;35.76;101901.72;5056025;28;20019;-34
2022/04/18 09:35:26;;;;;;;;;;;;;;;16.70;34.24;101904.78;5055954;28;19995;-34
2022/04/18 09:38:00;;;;;;;;;;;;;;;16.81;36.56;101897.63;5056019;28;20389;-34
2022/04/18 09:40:26;;;;;;;;;;;;;;;16.93;34.10;101890.16;5056030;28;19982;-34
2022/04/18 09:42:53;;;;;;;;;;;;;;;16.97;35.98;101892.16;5055581;28;19924;-34
2022/04/18 09:45:18;;;;;;;;;;;;;;;17.04;34.00;101891.19;5057019;28;19917;-34
2022/04/18 09:47:43;;;;;;;;;;;;;;;17.08;34.90;101886.84;5055803;28;19966;-34
2022/04/18 09:50:58;;;;;;;;;;;;;;;17.09;34.44;101886.63;5055750;28;19912;-34
2022/04/18 09:53:04;;;;;;;;;;;;;;;17.12;34.21;101886.09;5056223;28;20309;-34
2022/04/18 09:55:29;;;;;;;;;;;;;;;17.07;31.63;101883.28;5055827;28;19912;-34
2022/04/18 09:58:00;;;;;;;;;;;;;;;17.15;34.05;101884.78;5055402;28;19952;-35
2022/04/18 10:00:26;;;;;;;;;;;;;;;17.21;33.53;101876.41;5056076;28;19920;-33
2022/04/18 10:02:51;;;;;;;;;;;;;;;17.28;32.90;101869.97;5054575;28;19975;-34
2022/04/18 10:05:16;;;;;;;;;;;;;;;17.39;34.08;101866.28;5055062;28;20335;-34
2022/04/18 10:07:42;;;;;;;;;;;;;;;17.51;33.13;101872.47;5055298;28;19919;-33
2022/04/18 10:10:08;;;;;;;;;;;;;;;17.49;33.44;101871.91;5055116;28;19921;-34
2022/04/18 10:12:33;;;;;;;;;;;;;;;17.51;31.55;101869.72;5055331;28;19913;-34
2022/04/18 10:14:58;;;;;;;;;;;;;;;17.54;32.32;101863.75;5055610;28;19913;-34
2022/04/18 10:17:27;;;;;;;;;;;;;;;17.61;31.47;101863.56;5055397;28;19959;-34
2022/04/18 10:19:56;;;;;;;;;;;;;;;17.48;29.24;101862.88;5055203;28;20345;-34
2022/04/18 10:22:32;;;;;;;;;;;;;;;17.57;31.96;101863.28;5053965;28;19913;-34
2022/04/18 10:25:06;;;;;;;;;;;;;;;17.58;30.86;101847.69;5055530;28;19920;-35
2022/04/18 10:27:50;;;;;;;;;;;;;;;17.74;31.34;101850.38;5055754;28;19913;-35
2022/04/18 10:30:16;;;;;;;;;;;;;;;17.91;29.79;101858.53;5055213;28;19917;-35
2022/04/18 10:32:42;;;;;;;;;;;;;;;18.00;30.42;101845.19;5055589;28;19919;-34
2022/04/18 10:35:11;;;;;;;;;;;;;;;18.07;30.38;101843.13;5054796;28;19913;-35
2022/04/18 10:37:40;;;;;;;;;;;;;;;18.09;30.85;101842.84;5054862;28;19917;-35
2022/04/18 10:40:06;;;;;;;;;;;;;;;18.02;29.53;101834.84;5055360;28;19935;-35
2022/04/18 10:42:35;;;;;;;;;;;;;;;18.01;30.87;101838.66;5054735;28;19928;-35
2022/04/18 10:45:08;;;;;;;;;;;;;;;18.07;31.04;101834.91;5055241;28;19926;-34
2022/04/18 10:47:52;;;;;;;;;;;;;;;18.16;30.67;101833.38;5054439;28;20342;-34
2022/04/18 10:50:20;;;;;;;;;;;;;;;18.32;31.54;101830.78;5055289;28;19916;-35
2022/04/18 10:53:04;;;;;;;;;;;;;;;18.43;30.76;101829.78;5054472;28;19931;-34
2022/04/18 10:55:29;;;;;;;;;;;;;;;18.49;30.49;101828.72;5054426;28;19912;-34
2022/04/18 10:58:10;;;;;;;;;;;;;;;18.48;30.71;101827.91;5054392;28;19950;-34
2022/04/18 11:00:48;;;;;;;;;;;;;;;18.43;30.44;101833.34;5054835;28;19974;-34
2022/04/18 11:03:14;;;;;;;;;;;;;;;18.43;30.08;101827.84;5054595;28;19913;-34
2022/04/18 11:05:39;;;;;;;;;;;;;;;18.51;28.91;101823.84;5054630;28;19912;-34
2022/04/18 11:08:21;;;;;;;;;;;;;;;18.61;31.06;101823.91;5054182;28;19965;-35
2022/04/18 11:10:46;;;;;;;;;;;;;;;18.53;28.67;101827.13;5054130;28;20007;-35
2022/04/18 11:13:12;;;;;;;;;;;;;;;18.49;29.82;101820.50;5054726;28;20002;-34
2022/04/18 11:15:37;;;;;;;;;;;;;;;18.61;29.90;101814.88;5053950;28;19979;-34
2022/04/18 11:18:03;;;;;;;;;;;;;;;18.80;30.83;101820.81;5053737;28;19913;-35
2022/04/18 11:20:37;;;;;;;;;;;;;;;18.98;30.65;101812.16;5054693;28;19920;-35
2022/04/18 11:23:33;;;;;;;;;;;;;;;19.06;29.37;101810.84;5053915;28;19920;-35
2022/04/18 11:26:03;;;;;;;;;;;;;;;19.07;30.51;101810.59;5051525;28;19943;-34
2022/04/18 11:28:44;;;;;;;;;;;;;;;19.05;29.85;101807.28;5051497;28;19954;-35
2022/04/18 11:31:11;;;;;;;;;;;;;;;19.10;29.93;101810.06;5052049;28;19912;-34
2022/04/18 11:33:41;;;;;;;;;;;;;;;19.12;29.85;101807.88;5051417;28;19944;-34
2022/04/18 11:36:06;;;;;;;;;;;;;;;19.17;30.67;101809.81;5051357;28;20027;-34
2022/04/18 11:38:32;;;;;;;;;;;;;;;19.03;28.78;101809.44;5051256;28;20000;-34
2022/04/18 11:40:57;;;;;;;;;;;;;;;19.00;27.95;101799.03;5051631;28;19913;-34
2022/04/18 11:43:22;;;;;;;;;;;;;;;18.87;27.06;101804.97;5051691;28;19947;-34
2022/04/18 11:45:48;;;;;;;;;;;;;;;18.71;27.85;101798.56;5051862;28;19983;-34
2022/04/18 11:48:13;;;;;;;;;;;;;;;18.82;28.96;101799.44;5051624;28;19939;-34
2022/04/18 11:50:43;;;;;;;;;;;;;;;18.78;27.67;101801.88;5051375;28;19931;-35
2022/04/18 11:53:09;;;;;;;;;;;;;;;18.90;29.32;101793.50;5051831;28;20007;-34
2022/04/18 11:55:41;;;;;;;;;;;;;;;18.98;28.21;101795.72;5051186;28;19967;-34
2022/04/18 11:58:08;;;;;;;;;;;;;;;19.08;28.76;101797.69;5051104;28;19912;-34
2022/04/18 12:08:45;;;;;;;;;;;;;;;19.47;30.12;101795.44;5053478;28;20368;-35
2022/04/18 12:11:10;;;;;;;;;;;;;;;19.55;28.78;101786.69;5053736;28;20118;-35
2022/04/18 12:13:44;;;;;;;;;;;;;;;19.61;29.71;101791.13;5053026;28;19919;-35
2022/04/18 12:16:11;;;;;;;;;;;;;;;19.69;30.23;101787.88;5053178;28;19932;-35
2022/04/18 12:18:37;;;;;;;;;;;;;;;19.71;29.29;101784.88;5053250;28;20432;-35
2022/04/18 12:21:02;;;;;;;;;;;;;;;19.66;28.26;101784.84;5053753;28;19980;-35
2022/04/18 12:23:27;;;;;;;;;;;;;;;19.63;28.77;101772.50;5053293;28;19913;-35
2022/04/18 12:25:54;;;;;;;;;;;;;;;19.71;28.83;101771.97;5053744;28;19919;-35
2022/04/18 12:28:19;;;;;;;;;;;;;;;19.59;27.48;101779.59;5057982;28;19928;-35
2022/04/18 12:30:46;;;;;;;;;;;;;;;19.65;28.12;101772.22;5057600;28;19916;-35
2022/04/18 12:33:22;;;;;;;;;;;;;;;19.73;28.78;101767.06;5056879;28;19924;-34
2022/04/18 12:35:54;;;;;;;;;;;;;;;19.77;28.60;101764.59;5057628;28;19913;-35
2022/04/18 12:38:30;;;;;;;;;;;;;;;19.93;27.66;101762.72;5057433;28;19913;-35
2022/04/18 12:40:56;;;;;;;;;;;;;;;19.72;24.98;101751.69;5057320;28;19916;-35
2022/04/18 12:43:26;;;;;;;;;;;;;;;19.82;27.26;101745.41;5056944;28;20392;-35
2022/04/18 12:45:55;;;;;;;;;;;;;;;19.91;26.82;101749.25;5057794;28;19912;-35
2022/04/18 12:48:27;;;;;;;;;;;;;;;19.94;26.36;101742.38;5056847;28;19913;-35
2022/04/18 12:50:53;;;;;;;;;;;;;;;20.06;27.25;101740.22;5056818;28;19912;-35
2022/04/18 12:53:19;;;;;;;;;;;;;;;19.96;25.17;101730.06;5056728;28;19913;-35
2022/04/18 12:55:44;;;;;;;;;;;;;;;20.11;26.59;101737.47;5057221;28;20272;-35
2022/04/18 12:58:20;;;;;;;;;;;;;;;20.23;27.48;101738.03;5056902;28;20031;-35
2022/04/18 13:00:46;;;;;;;;;;;;;;;20.35;25.90;101725.94;5056854;28;19926;-35
2022/04/18 13:03:12;;;;;;;;;;;;;;;20.26;26.04;101729.25;5056568;28;20289;-35
2022/04/18 13:05:41;;;;;;;;;;;;;;;20.27;25.26;101719.09;5056576;28;19913;-35
2022/04/18 13:08:07;;;;;;;;;;;;;;;20.09;24.00;101720.44;5056224;28;20357;-35